XK102 / F-GRPI 7700 Squawk Report (16th of June, 2020)

Aircraft AT75 Reg No. F-GRPI Age 14 years old
Model ATR 72 Turboprop engines 2 First flight 06-12-05
Registered 18-12-15 Rollout 11-05 Delivered 13-12-05
Construction No. 722 Line No. N/A Series 212A
ADSHEX 3945E8 Airline name Air Corsica Owner N/A
Airfield based Ajaccio~Corse du Sud~F First tracked N/A

Flight history for F-GRPI

Route Flight No Date Playback
Cote D Azur (NCE) - Poretta (BIA) XK205 2020-08-08 19:48:00
Poretta (BIA) - Cote D Azur (NCE) XK206 2020-08-08 19:13:00
Provence (MRS) - Poretta (BIA) XK255 2020-08-08 16:41:00
Sud Corse (FSC) - Provence (MRS) XK590 2020-08-08 15:50:00
???? N/A 2020-08-08 13:22:00
Sud Corse (FSC) - Cote D Azur (NCE) XK582 2020-08-08 10:20:00
Provence (MRS) - Sud Corse (FSC) XK451 2020-08-08 09:31:00
Sud Corse (FSC) - Provence (MRS) XK450 2020-08-08 06:10:00
Provence (MRS) - Sud Corse (FSC) XK457 2020-08-08 05:10:00
Sud Corse (FSC) - Provence (MRS) XK456 2020-08-07 17:36:00
???? N/A 2020-08-07 15:58:00
???? N/A 2020-08-07 15:04:00
Cote D Azur (NCE) - Sud Corse (FSC) XK401 2020-08-07 10:58:00
Saint Catherine (CLY) - Cote D Azur (NCE) XK310 2020-08-07 09:35:00
Provence (MRS) - Saint Catherine (CLY) XK351 2020-08-07 08:29:00
Saint Catherine (CLY) - Provence (MRS) XK350 2020-08-07 07:03:00
Provence (MRS) - Saint Catherine (CLY) XK355 2020-08-06 18:44:00
Saint Catherine (CLY) - Provence (MRS) XK354 2020-08-06 17:13:00
???? N/A 2020-08-06 15:37:00
Campo Dell Oro (AJA) - Saint Exupery (LYS) XK130 2020-08-06 14:16:00
Time Lat Lon Altitude Heading Speed Vertical Rate
2020-06-16 17:53:24 GMT 43.662964 7.205560 0 351 0 0
2020-06-16 17:52:56 GMT 43.662773 7.205740 0 219 7 0
2020-06-16 17:52:47 GMT 43.663021 7.206025 0 241 12 0
2020-06-16 17:52:15 GMT 43.663204 7.209157 0 261 16 0
2020-06-16 17:51:43 GMT 43.663319 7.212461 0 264 16 0
2020-06-16 17:51:38 GMT 43.663364 7.213003 0 258 17 0
2020-06-16 17:51:31 GMT 43.663486 7.213979 0 258 17 0
2020-06-16 17:51:19 GMT 43.663731 7.214968 0 267 18 0
2020-06-16 17:51:09 GMT 43.662914 7.216497 0 315 20 0
2020-06-16 17:50:57 GMT 43.662544 7.217004 0 315 21 0
2020-06-16 17:50:48 GMT 43.661968 7.217778 0 317 21 0
2020-06-16 17:50:38 GMT 43.660950 7.218312 0 8 23 0
2020-06-16 17:50:27 GMT 43.659878 7.217919 0 16 26 0
2020-06-16 17:50:16 GMT 43.658630 7.217445 0 14 28 0
2020-06-16 17:50:07 GMT 43.657368 7.216884 0 25 30 0
2020-06-16 17:49:56 GMT 43.656017 7.215271 0 45 55 0
2020-06-16 17:49:46 GMT 43.653717 7.212141 75 45 89 64
2020-06-16 17:49:36 GMT 43.650452 7.207620 75 45 107 -192
2020-06-16 17:49:27 GMT 43.647377 7.203369 125 44 108 -512
2020-06-16 17:49:16 GMT 43.643143 7.197578 250 44 108 -640
2020-06-16 17:49:05 GMT 43.639297 7.192468 350 45 108 -384
2020-06-16 17:48:55 GMT 43.635834 7.187674 425 45 115 -768
2020-06-16 17:48:47 GMT 43.632759 7.183555 500 41 128 -704
2020-06-16 17:48:44 GMT 43.630806 7.181331 575 37 130 -1216
2020-06-16 17:48:34 GMT 43.626198 7.177407 750 27 132 -1408
2020-06-16 17:48:27 GMT 43.621868 7.174857 950 16 133 -1536
2020-06-16 17:48:23 GMT 43.619797 7.174200 1,025 8 132 -1472
2020-06-16 17:48:16 GMT 43.615814 7.173753 1,150 358 135 -896
2020-06-16 17:48:13 GMT 43.613583 7.174072 1,200 352 138 -832
2020-06-16 17:48:06 GMT 43.609360 7.175477 1,325 346 145 -960
2020-06-16 17:48:03 GMT 43.606506 7.176492 1,375 347 150 -832
2020-06-16 17:47:56 GMT 43.602318 7.177865 1,450 348 157 -640
2020-06-16 17:47:52 GMT 43.599014 7.178863 1,475 348 162 0
2020-06-16 17:47:45 GMT 43.594711 7.180332 1,450 344 178 128
2020-06-16 17:47:41 GMT 43.591141 7.181929 1,475 341 184 -320
2020-06-16 17:47:36 GMT 43.586746 7.184356 1,500 336 192 -832
2020-06-16 17:47:25 GMT 43.578575 7.190094 1,650 333 204 -832
2020-06-16 17:47:19 GMT 43.572830 7.194193 1,750 335 212 -704
2020-06-16 17:47:15 GMT 43.569901 7.196237 1,825 334 209 -1088
2020-06-16 17:47:12 GMT 43.566055 7.198792 1,900 336 219 -192
2020-06-16 17:47:05 GMT 43.560001 7.202650 1,950 336 219 -192
2020-06-16 17:47:02 GMT 43.556461 7.204873 1,950 337 226 -320
2020-06-16 17:46:55 GMT 43.550995 7.208117 1,975 338 226 -64
2020-06-16 17:46:50 GMT 43.546314 7.210824 1,975 339 227 64
2020-06-16 17:46:45 GMT 43.541519 7.213355 1,975 340 228 0
2020-06-16 17:46:41 GMT 43.536346 7.215974 1,975 341 230 -512
2020-06-16 17:46:35 GMT 43.531044 7.218541 2,050 341 232 -1024
2020-06-16 17:46:29 GMT 43.525318 7.221222 2,150 342 233 -1088
2020-06-16 17:46:25 GMT 43.520897 7.223315 2,225 341 235 -960
2020-06-16 17:46:19 GMT 43.515198 7.226130 2,325 340 237 -1024
2020-06-16 17:46:14 GMT 43.510098 7.228808 2,400 340 240 -1024
2020-06-16 17:46:10 GMT 43.504463 7.231750 2,500 339 243 -1024
2020-06-16 17:46:04 GMT 43.498970 7.234693 2,575 339 246 -960
2020-06-16 17:45:58 GMT 43.493103 7.237963 2,675 338 250 -1344
2020-06-16 17:45:54 GMT 43.488403 7.240710 2,775 337 251 -1280
2020-06-16 17:45:48 GMT 43.482582 7.244241 2,900 337 250 -1344
2020-06-16 17:45:45 GMT 43.478115 7.246987 2,975 336 249 -1280
2020-06-16 17:45:39 GMT 43.471363 7.251173 3,125 335 248 -1280
2020-06-16 17:45:34 GMT 43.467129 7.253919 3,200 335 248 -1280
2020-06-16 17:45:28 GMT 43.460938 7.258039 3,350 334 246 -1216
2020-06-16 17:45:24 GMT 43.457108 7.260685 3,425 332 246 -1280
2020-06-16 17:45:18 GMT 43.449829 7.266306 3,575 330 248 -1280
2020-06-16 17:45:14 GMT 43.446877 7.268633 3,650 330 247 -1280
2020-06-16 17:45:04 GMT 43.436966 7.276462 3,850 331 248 -1344
2020-06-16 17:44:54 GMT 43.426895 7.284191 4,075 331 248 -1536
2020-06-16 17:44:44 GMT 43.416851 7.292175 4,325 328 251 -1408
2020-06-16 17:44:33 GMT 43.406754 7.301373 4,600 326 254 -1472
2020-06-16 17:44:24 GMT 43.397392 7.310159 4,925 326 261 -1536
2020-06-16 17:44:20 GMT 43.392883 7.314403 4,925 326 261 -1536
2020-06-16 17:44:13 GMT 43.386566 7.320344 5,075 326 262 -1472
2020-06-16 17:44:03 GMT 43.376678 7.329712 5,325 326 257 -1472
2020-06-16 17:43:58 GMT 43.372349 7.333701 5,425 326 255 -1536
2020-06-16 17:43:53 GMT 43.366837 7.338867 5,550 326 252 -1024
2020-06-16 17:43:48 GMT 43.362152 7.343183 5,650 327 251 -1344
2020-06-16 17:43:43 GMT 43.356995 7.347810 5,800 327 249 -1856
2020-06-16 17:43:37 GMT 43.351822 7.352408 5,975 328 253 -1984
2020-06-16 17:43:33 GMT 43.347061 7.356624 6,125 327 258 -1920
2020-06-16 17:43:26 GMT 43.340195 7.362820 6,325 327 263 -1984
2020-06-16 17:43:22 GMT 43.336548 7.366071 6,450 327 265 -1856
2020-06-16 17:43:15 GMT 43.329659 7.372219 6,725 327 267 -1856
2020-06-16 17:43:12 GMT 43.326416 7.375148 6,725 327 267 -1856
2020-06-16 17:43:03 GMT 43.316765 7.383728 7,575 327 273 -1856
2020-06-16 17:42:52 GMT 43.305267 7.394054 7,375 327 272 -1856
2020-06-16 17:42:41 GMT 43.293732 7.404466 7,725 327 275 -1920
2020-06-16 17:42:31 GMT 43.283340 7.413855 8,050 327 270 -1920
2020-06-16 17:42:21 GMT 43.272537 7.423500 8,375 327 279 -1856
2020-06-16 17:42:11 GMT 43.261272 7.433886 8,700 326 278 -1280
2020-06-16 17:42:03 GMT 43.252441 7.442088 8,850 326 277 -1024
2020-06-16 17:42:00 GMT 43.250336 7.444068 8,850 326 277 -1024
2020-06-16 17:41:50 GMT 43.239304 7.454288 9,050 326 276 -960
2020-06-16 17:41:40 GMT 43.228226 7.464571 9,225 327 275 -960
2020-06-16 17:41:32 GMT 43.220261 7.471917 9,350 326 275 -960
2020-06-16 17:41:29 GMT 43.217514 7.474408 9,375 326 275 -896
2020-06-16 17:41:22 GMT 43.209641 7.481689 9,525 327 273 -1024
2020-06-16 17:41:19 GMT 43.206947 7.484174 9,550 327 273 -960
2020-06-16 17:41:12 GMT 43.198929 7.491590 9,675 326 272 -1024
2020-06-16 17:41:09 GMT 43.195908 7.494400 9,725 326 271 -1024
2020-06-16 17:41:02 GMT 43.188560 7.501177 9,850 327 270 -1024
2020-06-16 17:40:52 GMT 43.177963 7.510880 10,025 326 267 -960
2020-06-16 17:40:42 GMT 43.167797 7.520272 10,175 327 265 -1024
2020-06-16 17:40:38 GMT 43.164368 7.523399 10,450 326 263 -1152
2020-06-16 17:40:32 GMT 43.157742 7.529558 10,350 326 263 -960
2020-06-16 17:40:28 GMT 43.153690 7.533286 10,425 326 262 -1024
2020-06-16 17:40:22 GMT 43.143585 7.542753 10,575 326 261 -960
2020-06-16 17:40:18 GMT 43.143585 7.542753 10,600 326 260 -960
2020-06-16 17:40:10 GMT 43.135666 7.550290 10,725 326 259 -960
2020-06-16 17:39:59 GMT 43.125320 7.560063 10,900 326 259 -1024
2020-06-16 17:39:56 GMT 43.121933 7.563257 10,950 327 262 -960
2020-06-16 17:39:51 GMT 43.117474 7.567357 11,075 326 264 -1024
2020-06-16 17:39:47 GMT 43.112823 7.571624 11,100 327 266 -1024
2020-06-16 17:39:42 GMT 43.107094 7.576904 11,200 327 270 -1024
2020-06-16 17:39:39 GMT 43.105045 7.578801 11,250 327 272 -960
2020-06-16 17:39:35 GMT 43.100327 7.583057 11,325 327 276 -1024
2020-06-16 17:39:29 GMT 43.093918 7.588934 11,425 327 281 -896
2020-06-16 17:39:26 GMT 43.091309 7.591297 11,450 327 284 -1024
2020-06-16 17:39:20 GMT 43.083298 7.598579 11,575 327 286 -960
2020-06-16 17:39:16 GMT 43.079773 7.601836 11,625 327 286 -1024
2020-06-16 17:39:09 GMT 43.072311 7.608607 11,725 327 284 -960
2020-06-16 17:39:05 GMT 43.068455 7.612152 11,800 327 282 -1088
2020-06-16 17:38:59 GMT 43.061192 7.618692 11,900 327 277 -960
2020-06-16 17:38:55 GMT 43.057236 7.622223 11,975 327 275 -896
2020-06-16 17:38:49 GMT 43.050247 7.628472 12,000 327 274 0
2020-06-16 17:38:45 GMT 43.046310 7.631921 12,000 327 274 0
2020-06-16 17:38:39 GMT 43.039684 7.637852 12,000 328 274 0
2020-06-16 17:38:33 GMT 43.033493 7.643280 12,000 328 274 0
2020-06-16 17:38:29 GMT 43.028976 7.647204 12,000 328 274 0
2020-06-16 17:38:22 GMT 43.022369 7.652958 12,000 328 273 64
2020-06-16 17:38:19 GMT 43.018250 7.656513 12,000 328 274 0
2020-06-16 17:38:12 GMT 43.011429 7.662441 12,000 328 274 0
2020-06-16 17:38:08 GMT 43.007191 7.666234 12,000 328 274 0
2020-06-16 17:37:59 GMT 42.996506 7.675739 12,000 327 274 0
2020-06-16 17:37:48 GMT 42.986252 7.685639 12,000 324 273 192
2020-06-16 17:37:38 GMT 42.975861 7.696625 12,000 322 273 -64
2020-06-16 17:37:28 GMT 42.965946 7.707432 12,000 322 273 -64
2020-06-16 17:37:18 GMT 42.955845 7.718353 12,000 322 273 -64
2020-06-16 17:37:10 GMT 42.948025 7.726855 12,000 322 273 -64
2020-06-16 17:37:07 GMT 42.945835 7.729209 12,000 322 273 0
2020-06-16 17:36:58 GMT 42.936108 7.739737 12,000 322 273 64
2020-06-16 17:36:47 GMT 42.925819 7.750854 12,000 322 273 -64
2020-06-16 17:36:39 GMT 42.917679 7.759669 12,000 322 273 0
2020-06-16 17:36:36 GMT 42.915157 7.762429 12,000 322 273 0
2020-06-16 17:36:29 GMT 42.907944 7.770277 12,000 322 272 0
2020-06-16 17:36:26 GMT 42.905289 7.773154 12,000 322 272 0
2020-06-16 17:36:19 GMT 42.898041 7.781003 12,000 322 272 -64
2020-06-16 17:36:13 GMT 42.891632 7.787901 12,000 322 271 0
2020-06-16 17:36:09 GMT 42.884995 7.795055 12,000 322 271 0
2020-06-16 17:36:06 GMT 42.884995 7.795055 12,000 322 271 0
2020-06-16 17:35:59 GMT 42.877964 7.802647 12,000 322 271 0
2020-06-16 17:35:56 GMT 42.874889 7.805982 12,000 322 271 0
2020-06-16 17:35:49 GMT 42.868095 7.813307 12,000 322 271 128
2020-06-16 17:35:45 GMT 42.864510 7.817165 12,000 322 271 64
2020-06-16 17:35:39 GMT 42.858444 7.823671 12,000 322 271 64
2020-06-16 17:35:35 GMT 42.854546 7.827890 12,000 322 271 0
2020-06-16 17:35:29 GMT 42.848511 7.834402 12,000 322 271 0
2020-06-16 17:35:26 GMT 42.845238 7.837960 12,000 322 271 0
2020-06-16 17:35:23 GMT 42.843143 7.840249 12,000 322 271 64
2020-06-16 17:35:17 GMT 42.835274 7.848685 12,000 322 271 0
2020-06-16 17:35:13 GMT 42.832947 7.851201 12,000 322 271 0
2020-06-16 17:35:09 GMT 42.828552 7.855927 12,000 322 271 0
2020-06-16 17:35:06 GMT 42.825451 7.859279 12,000 322 271 64
2020-06-16 17:35:03 GMT 42.822922 7.861995 12,000 322 271 64
2020-06-16 17:34:58 GMT 42.818375 7.866930 12,000 322 271 0
2020-06-16 17:34:53 GMT 42.813023 7.872620 12,000 322 270 0
2020-06-16 17:34:46 GMT 42.806122 7.880069 12,000 322 270 64
2020-06-16 17:34:42 GMT 42.802921 7.883457 12,000 322 270 0
2020-06-16 17:34:36 GMT 42.796356 7.890547 12,000 322 270 0
2020-06-16 17:34:29 GMT 42.788727 7.898733 12,000 322 270 0
2020-06-16 17:34:26 GMT 42.786346 7.901342 12,000 322 270 -64
2020-06-16 17:34:21 GMT 42.781586 7.906473 12,000 322 270 0
2020-06-16 17:34:18 GMT 42.778931 7.909282 12,000 322 270 64
2020-06-16 17:34:15 GMT 42.775497 7.913028 12,000 322 270 0
2020-06-16 17:34:08 GMT 42.768814 7.920206 12,000 322 270 0
2020-06-16 17:34:03 GMT 42.763824 7.925575 12,000 322 269 0
2020-06-16 17:33:58 GMT 42.758789 7.930979 12,000 322 269 0
2020-06-16 17:33:48 GMT 42.749268 7.941243 12,000 322 269 128
2020-06-16 17:33:40 GMT 42.739098 7.952249 12,000 322 268 0
2020-06-16 17:33:28 GMT 42.729630 7.962404 12,000 322 267 -64
2020-06-16 17:33:17 GMT 42.719513 7.973203 12,000 322 266 64
2020-06-16 17:33:08 GMT 42.710190 7.983228 12,000 322 266 -64
2020-06-16 17:32:57 GMT 42.700058 7.994114 12,000 322 266 -64
2020-06-16 17:32:48 GMT 42.690266 8.004690 12,000 322 266 64
2020-06-16 17:32:41 GMT 42.684956 8.010375 12,000 322 266 0
2020-06-16 17:32:37 GMT 42.680676 8.014973 12,000 322 266 -64
2020-06-16 17:32:34 GMT 42.677444 8.018459 12,000 322 266 -64
2020-06-16 17:32:27 GMT 42.670990 8.025388 12,000 322 266 0
2020-06-16 17:32:17 GMT 42.661217 8.035924 12,000 322 265 0
2020-06-16 17:32:12 GMT 42.656979 8.040523 12,000 322 265 64
2020-06-16 17:32:06 GMT 42.651020 8.046910 12,000 322 265 -64
2020-06-16 17:31:57 GMT 42.641945 8.056683 12,000 322 265 0
2020-06-16 17:31:52 GMT 42.637756 8.061156 12,000 322 265 0
2020-06-16 17:31:47 GMT 42.632118 8.067222 12,000 322 265 0
2020-06-16 17:31:41 GMT 42.626221 8.073515 12,000 322 264 -64
2020-06-16 17:31:34 GMT 42.619038 8.081211 12,000 322 264 64
2020-06-16 17:31:26 GMT 42.611938 8.088747 12,000 322 264 0
2020-06-16 17:31:23 GMT 42.609055 8.091868 12,000 322 264 0
2020-06-16 17:31:15 GMT 42.601822 8.099546 12,000 322 264 0
2020-06-16 17:31:12 GMT 42.598511 8.103120 12,000 322 265 -64
2020-06-16 17:31:06 GMT 42.593204 8.108741 12,000 322 264 -64
2020-06-16 17:31:03 GMT 42.589783 8.112405 12,000 322 264 64
2020-06-16 17:30:55 GMT 42.582642 8.120020 12,000 322 265 0
2020-06-16 17:30:52 GMT 42.579346 8.123516 12,000 322 265 0
2020-06-16 17:30:46 GMT 42.573853 8.129383 12,000 322 265 0
2020-06-16 17:30:43 GMT 42.571136 8.132310 12,000 322 265 0
2020-06-16 17:30:36 GMT 42.564156 8.139719 12,000 322 264 0
2020-06-16 17:30:26 GMT 42.554237 8.150322 12,000 322 264 64
2020-06-16 17:30:15 GMT 42.543869 8.161406 12,000 322 264 0
2020-06-16 17:30:06 GMT 42.534687 8.171145 12,000 322 264 0
2020-06-16 17:29:56 GMT 42.525051 8.181365 12,000 322 264 64
2020-06-16 17:29:46 GMT 42.515415 8.191521 12,000 323 263 0
2020-06-16 17:29:34 GMT 42.504456 8.202979 12,000 323 263 0
2020-06-16 17:29:25 GMT 42.495850 8.212093 12,000 322 262 0
2020-06-16 17:29:11 GMT 42.481659 8.227137 12,000 322 263 0
2020-06-16 17:29:04 GMT 42.475891 8.233254 12,000 322 262 0
2020-06-16 17:28:51 GMT 42.463509 8.246644 12,000 322 262 64
2020-06-16 17:28:45 GMT 42.457039 8.253607 12,000 322 262 64
2020-06-16 17:28:35 GMT 42.447601 8.264028 12,000 321 262 0
2020-06-16 17:28:24 GMT 42.438000 8.274621 12,000 321 261 64
2020-06-16 17:28:14 GMT 42.428360 8.285480 12,000 321 260 64
2020-06-16 17:28:04 GMT 42.418774 8.296147 12,000 321 260 128
2020-06-16 17:27:54 GMT 42.409973 8.305664 12,000 322 261 64
2020-06-16 17:27:44 GMT 42.400291 8.315501 12,000 325 261 64
2020-06-16 17:27:38 GMT 42.392700 8.322271 12,000 331 262 0
2020-06-16 17:27:34 GMT 42.388699 8.325337 12,000 331 263 64
2020-06-16 17:27:27 GMT 42.382320 8.330192 12,000 331 262 0
2020-06-16 17:27:23 GMT 42.378456 8.333194 12,000 331 262 0
2020-06-16 17:27:16 GMT 42.371147 8.338815 12,000 331 261 -64
2020-06-16 17:27:09 GMT 42.363464 8.344740 12,000 331 261 0
2020-06-16 17:27:04 GMT 42.357651 8.349235 12,000 331 261 64
2020-06-16 17:26:53 GMT 42.346848 8.357657 12,000 330 260 0
2020-06-16 17:26:43 GMT 42.336777 8.365527 12,000 330 260 0
2020-06-16 17:26:34 GMT 42.326553 8.373562 12,000 330 258 0
2020-06-16 17:26:23 GMT 42.315628 8.382131 12,000 330 256 0
2020-06-16 17:26:14 GMT 42.295441 8.397862 12,000 331 249 64
2020-06-16 17:26:03 GMT 42.295441 8.397862 12,000 330 253 0
2020-06-16 17:25:54 GMT 42.285072 8.405946 12,000 331 250 -64
2020-06-16 17:25:43 GMT 42.275116 8.413655 12,000 331 247 0
2020-06-16 17:25:33 GMT 42.264824 8.421595 12,000 331 244 0
2020-06-16 17:25:23 GMT 42.254974 8.429198 12,000 331 238 -64
2020-06-16 17:25:12 GMT 42.245270 8.436626 12,000 331 231 192
2020-06-16 17:25:03 GMT 42.236519 8.443249 11,925 331 226 960
2020-06-16 17:24:53 GMT 42.227325 8.450234 11,750 331 226 1024
2020-06-16 17:24:42 GMT 42.217575 8.457600 11,575 331 227 960
2020-06-16 17:24:32 GMT 42.207935 8.464838 11,400 331 227 960
2020-06-16 17:24:22 GMT 42.198715 8.471770 11,250 331 226 832
2020-06-16 17:24:13 GMT 42.189926 8.478449 11,125 331 226 832
2020-06-16 17:24:02 GMT 42.180862 8.485378 10,975 331 224 832
2020-06-16 17:23:52 GMT 42.171860 8.492368 10,850 330 221 832
2020-06-16 17:23:42 GMT 42.163010 8.499361 10,700 330 219 896
2020-06-16 17:23:32 GMT 42.153854 8.506664 10,525 330 218 1024
2020-06-16 17:23:21 GMT 42.145042 8.513574 10,375 331 218 960
2020-06-16 17:23:12 GMT 42.136478 8.520153 10,200 331 217 1024
2020-06-16 17:23:03 GMT 42.127819 8.526732 10,025 331 216 1088
2020-06-16 17:22:50 GMT 42.117920 8.534442 9,825 330 215 1088
2020-06-16 17:22:41 GMT 42.110130 8.540593 9,675 330 215 1088
2020-06-16 17:22:30 GMT 42.099884 8.548737 9,450 330 215 1024
2020-06-16 17:22:21 GMT 42.092239 8.554792 9,300 330 215 1088
2020-06-16 17:22:10 GMT 42.082806 8.562118 9,100 331 214 1088
2020-06-16 17:21:51 GMT 42.066742 8.574318 8,750 331 214 1152
2020-06-16 17:21:41 GMT 42.057854 8.581089 8,550 331 214 1216
2020-06-16 17:21:31 GMT 42.049438 8.587751 8,350 330 215 1280
2020-06-16 17:21:14 GMT 42.034790 8.599611 8,000 330 215 1216
2020-06-16 17:20:54 GMT 42.018234 8.612515 7,600 331 216 1152
2020-06-16 17:20:51 GMT 42.014603 8.615279 7,525 332 216 1216
2020-06-16 17:20:40 GMT 42.005482 8.621904 7,325 333 216 1216
2020-06-16 17:20:30 GMT 41.996658 8.628075 7,125 333 216 1216
2020-06-16 17:20:20 GMT 41.987789 8.634296 6,950 333 216 1152
2020-06-16 17:20:06 GMT 41.975418 8.643119 6,700 332 215 1088
2020-06-16 17:19:57 GMT 41.968098 8.648731 6,550 330 212 1024
2020-06-16 17:19:44 GMT 41.956558 8.658225 6,300 327 208 640
2020-06-16 17:19:37 GMT 41.950836 8.663531 6,225 322 202 576
2020-06-16 17:19:29 GMT 41.945938 8.669426 6,175 318 193 704
2020-06-16 17:19:25 GMT 41.943420 8.672582 6,125 319 193 448
2020-06-16 17:18:59 GMT 41.924332 8.688500 5,700 332 171 1984
2020-06-16 17:18:47 GMT 41.916382 8.694210 5,375 333 171 1536
2020-06-16 17:18:39 GMT 41.910736 8.698300 5,225 331 160 1024
2020-06-16 17:18:29 GMT 41.904835 8.703918 5,025 311 143 1024

Making use of Plane Finder data

You are free to use the raw flight data, aircraft information and images provided in this report for your own purposes provided the data is correctly attributed to Plane Finder. We ask that you please credit Plane Finder and link to planefinder.net in close proximity to the content.

Optionally one of the following logos (no smaller then 150x24px) can be used and must link to planefinder.net

Embedding the Plane Finder map

You are welcome to embed the Plane Finder playback map on your website to offer visitors a more interactive experience. We suggest using the following HTML code:

<iframe src="//planefinder.net/data/report/XK102-F-GRPI-7700-squawk-2020-06-16/map" width="800" height="600" seamless="seamless"></iframe>

Where our data comes from

Plane Finder has a global network of data feeds and antenna radars that receive data broadcast directly from aircraft. The primary technologies used are ADS-B and MLAT. We also show feeds from the FAA and a FLARM glider feed.

Click here to find out more about the Plane Finder network.

How we collect our data